sensor_id;sensor_type;location;lat;lon;timestamp;P1;durP1;ratioP1;P2;durP2;ratioP2
15938;SDS011;8068;51.322;9.450;2022-11-15T00:00:28;6.83;;;4.70;;
15938;SDS011;8068;51.322;9.450;2022-11-15T00:02:54;8.30;;;5.03;;
15938;SDS011;8068;51.322;9.450;2022-11-15T00:05:21;5.10;;;4.80;;
15938;SDS011;8068;51.322;9.450;2022-11-15T00:07:47;6.00;;;4.10;;
15938;SDS011;8068;51.322;9.450;2022-11-15T00:10:21;4.67;;;4.30;;
15938;SDS011;8068;51.322;9.450;2022-11-15T00:12:47;4.63;;;4.40;;
15938;SDS011;8068;51.322;9.450;2022-11-15T00:15:13;6.47;;;4.67;;
15938;SDS011;8068;51.322;9.450;2022-11-15T00:17:39;10.10;;;4.90;;
15938;SDS011;8068;51.322;9.450;2022-11-15T00:20:05;4.00;;;3.80;;
15938;SDS011;8068;51.322;9.450;2022-11-15T00:22:32;5.83;;;3.90;;
15938;SDS011;8068;51.322;9.450;2022-11-15T00:24:58;4.60;;;4.23;;
15938;SDS011;8068;51.322;9.450;2022-11-15T00:27:25;9.53;;;5.37;;
15938;SDS011;8068;51.322;9.450;2022-11-15T00:29:51;4.50;;;4.20;;
15938;SDS011;8068;51.322;9.450;2022-11-15T00:32:17;5.60;;;4.77;;
15938;SDS011;8068;51.322;9.450;2022-11-15T00:34:43;4.80;;;4.50;;
15938;SDS011;8068;51.322;9.450;2022-11-15T00:37:09;4.87;;;4.50;;
15938;SDS011;8068;51.322;9.450;2022-11-15T00:39:35;5.00;;;4.50;;
15938;SDS011;8068;51.322;9.450;2022-11-15T00:42:01;4.80;;;4.40;;
15938;SDS011;8068;51.322;9.450;2022-11-15T00:44:27;5.03;;;4.60;;
15938;SDS011;8068;51.322;9.450;2022-11-15T00:46:53;5.03;;;4.63;;
15938;SDS011;8068;51.322;9.450;2022-11-15T00:49:19;5.87;;;5.30;;
15938;SDS011;8068;51.322;9.450;2022-11-15T00:51:45;5.47;;;5.00;;
15938;SDS011;8068;51.322;9.450;2022-11-15T00:54:11;4.50;;;4.20;;
15938;SDS011;8068;51.322;9.450;2022-11-15T00:56:37;5.17;;;4.73;;
15938;SDS011;8068;51.322;9.450;2022-11-15T00:59:03;5.60;;;4.70;;
15938;SDS011;8068;51.322;9.450;2022-11-15T01:01:29;5.77;;;4.80;;
15938;SDS011;8068;51.322;9.450;2022-11-15T01:03:55;6.27;;;5.20;;
15938;SDS011;8068;51.322;9.450;2022-11-15T01:06:26;4.90;;;4.50;;
15938;SDS011;8068;51.322;9.450;2022-11-15T01:08:52;4.80;;;4.50;;
15938;SDS011;8068;51.322;9.450;2022-11-15T01:11:18;7.73;;;4.80;;
15938;SDS011;8068;51.322;9.450;2022-11-15T01:13:44;5.40;;;5.00;;
15938;SDS011;8068;51.322;9.450;2022-11-15T01:16:15;4.90;;;4.60;;
15938;SDS011;8068;51.322;9.450;2022-11-15T01:18:44;4.70;;;4.30;;
15938;SDS011;8068;51.322;9.450;2022-11-15T01:21:14;4.73;;;4.43;;
15938;SDS011;8068;51.322;9.450;2022-11-15T01:23:42;4.30;;;4.10;;
15938;SDS011;8068;51.322;9.450;2022-11-15T01:26:10;4.87;;;4.50;;
15938;SDS011;8068;51.322;9.450;2022-11-15T01:28:39;6.50;;;4.60;;
15938;SDS011;8068;51.322;9.450;2022-11-15T01:31:14;6.40;;;4.20;;
15938;SDS011;8068;51.322;9.450;2022-11-15T01:33:41;9.07;;;4.70;;
15938;SDS011;8068;51.322;9.450;2022-11-15T01:36:10;7.63;;;4.20;;
15938;SDS011;8068;51.322;9.450;2022-11-15T01:38:38;4.40;;;4.20;;
15938;SDS011;8068;51.322;9.450;2022-11-15T01:41:04;7.63;;;3.90;;
15938;SDS011;8068;51.322;9.450;2022-11-15T01:43:34;4.50;;;4.30;;
15938;SDS011;8068;51.322;9.450;2022-11-15T01:46:03;5.07;;;4.43;;
15938;SDS011;8068;51.322;9.450;2022-11-15T01:48:34;4.40;;;4.00;;
15938;SDS011;8068;51.322;9.450;2022-11-15T01:51:01;5.60;;;4.60;;
15938;SDS011;8068;51.322;9.450;2022-11-15T01:53:29;4.13;;;3.97;;
15938;SDS011;8068;51.322;9.450;2022-11-15T01:55:57;5.00;;;4.70;;
15938;SDS011;8068;51.322;9.450;2022-11-15T01:58:24;6.40;;;4.30;;
15938;SDS011;8068;51.322;9.450;2022-11-15T02:00:50;4.03;;;3.93;;
15938;SDS011;8068;51.322;9.450;2022-11-15T02:03:17;4.70;;;4.40;;
15938;SDS011;8068;51.322;9.450;2022-11-15T02:05:43;5.17;;;4.53;;
15938;SDS011;8068;51.322;9.450;2022-11-15T02:08:10;6.97;;;5.07;;
15938;SDS011;8068;51.322;9.450;2022-11-15T02:10:48;5.17;;;4.77;;
15938;SDS011;8068;51.322;9.450;2022-11-15T02:13:15;4.90;;;4.40;;
15938;SDS011;8068;51.322;9.450;2022-11-15T02:15:49;7.93;;;5.33;;
15938;SDS011;8068;51.322;9.450;2022-11-15T02:18:29;4.37;;;4.17;;
15938;SDS011;8068;51.322;9.450;2022-11-15T02:29:10;5.87;;;5.37;;
15938;SDS011;8068;51.322;9.450;2022-11-15T02:37:16;5.63;;;5.20;;
15938;SDS011;8068;51.322;9.450;2022-11-15T02:42:41;6.60;;;5.70;;
15938;SDS011;8068;51.322;9.450;2022-11-15T02:45:35;5.90;;;4.87;;
15938;SDS011;8068;51.322;9.450;2022-11-15T02:48:05;5.30;;;5.00;;
15938;SDS011;8068;51.322;9.450;2022-11-15T02:50:32;6.30;;;5.40;;
15938;SDS011;8068;51.322;9.450;2022-11-15T02:52:58;8.23;;;5.20;;
15938;SDS011;8068;51.322;9.450;2022-11-15T02:55:28;5.77;;;5.30;;
15938;SDS011;8068;51.322;9.450;2022-11-15T03:00:59;5.60;;;5.20;;
15938;SDS011;8068;51.322;9.450;2022-11-15T03:06:18;5.90;;;5.50;;
15938;SDS011;8068;51.322;9.450;2022-11-15T03:11:18;5.37;;;4.97;;
15938;SDS011;8068;51.322;9.450;2022-11-15T03:16:24;4.93;;;4.63;;
15938;SDS011;8068;51.322;9.450;2022-11-15T03:18:57;6.03;;;5.40;;
15938;SDS011;8068;51.322;9.450;2022-11-15T03:21:26;5.33;;;4.70;;
15938;SDS011;8068;51.322;9.450;2022-11-15T03:23:54;4.50;;;4.10;;
15938;SDS011;8068;51.322;9.450;2022-11-15T03:26:21;5.53;;;5.23;;
15938;SDS011;8068;51.322;9.450;2022-11-15T03:28:50;5.37;;;4.10;;
15938;SDS011;8068;51.322;9.450;2022-11-15T03:31:19;6.40;;;4.80;;
15938;SDS011;8068;51.322;9.450;2022-11-15T03:34:04;5.37;;;4.97;;
15938;SDS011;8068;51.322;9.450;2022-11-15T03:36:31;10.23;;;5.40;;
15938;SDS011;8068;51.322;9.450;2022-11-15T03:39:00;5.97;;;4.80;;
15938;SDS011;8068;51.322;9.450;2022-11-15T03:41:30;4.40;;;4.00;;
15938;SDS011;8068;51.322;9.450;2022-11-15T03:44:22;5.67;;;4.90;;
15938;SDS011;8068;51.322;9.450;2022-11-15T03:47:11;5.30;;;4.20;;
15938;SDS011;8068;51.322;9.450;2022-11-15T03:49:42;4.70;;;4.37;;
15938;SDS011;8068;51.322;9.450;2022-11-15T03:52:10;4.17;;;3.87;;
15938;SDS011;8068;51.322;9.450;2022-11-15T03:54:37;6.53;;;4.23;;
15938;SDS011;8068;51.322;9.450;2022-11-15T03:57:13;5.07;;;4.57;;
15938;SDS011;8068;51.322;9.450;2022-11-15T03:59:39;4.60;;;4.40;;
15938;SDS011;8068;51.322;9.450;2022-11-15T04:02:05;4.60;;;4.30;;
15938;SDS011;8068;51.322;9.450;2022-11-15T04:04:31;4.77;;;4.37;;
15938;SDS011;8068;51.322;9.450;2022-11-15T04:06:57;4.13;;;3.83;;
15938;SDS011;8068;51.322;9.450;2022-11-15T04:09:24;7.63;;;4.23;;
15938;SDS011;8068;51.322;9.450;2022-11-15T04:11:50;4.33;;;3.90;;
15938;SDS011;8068;51.322;9.450;2022-11-15T04:14:16;4.70;;;4.40;;
15938;SDS011;8068;51.322;9.450;2022-11-15T04:16:42;5.07;;;4.50;;
15938;SDS011;8068;51.322;9.450;2022-11-15T04:19:09;4.70;;;4.20;;
15938;SDS011;8068;51.322;9.450;2022-11-15T04:21:53;7.80;;;4.07;;
15938;SDS011;8068;51.322;9.450;2022-11-15T04:24:38;4.50;;;4.20;;
15938;SDS011;8068;51.322;9.450;2022-11-15T04:27:04;4.50;;;4.30;;
15938;SDS011;8068;51.322;9.450;2022-11-15T04:29:30;5.60;;;4.40;;
15938;SDS011;8068;51.322;9.450;2022-11-15T04:32:03;6.20;;;4.53;;
15938;SDS011;8068;51.322;9.450;2022-11-15T04:34:30;4.93;;;4.33;;
15938;SDS011;8068;51.322;9.450;2022-11-15T04:36:56;4.80;;;4.40;;
15938;SDS011;8068;51.322;9.450;2022-11-15T04:39:37;4.60;;;4.17;;
15938;SDS011;8068;51.322;9.450;2022-11-15T04:42:04;4.50;;;4.20;;
15938;SDS011;8068;51.322;9.450;2022-11-15T04:44:30;4.33;;;4.13;;
15938;SDS011;8068;51.322;9.450;2022-11-15T04:46:56;4.37;;;3.90;;
15938;SDS011;8068;51.322;9.450;2022-11-15T04:49:22;6.53;;;3.93;;
15938;SDS011;8068;51.322;9.450;2022-11-15T04:51:49;4.20;;;4.00;;
15938;SDS011;8068;51.322;9.450;2022-11-15T04:54:15;4.80;;;4.20;;
15938;SDS011;8068;51.322;9.450;2022-11-15T04:56:41;4.73;;;4.40;;
15938;SDS011;8068;51.322;9.450;2022-11-15T04:59:07;7.03;;;3.83;;
15938;SDS011;8068;51.322;9.450;2022-11-15T05:01:33;4.73;;;4.13;;
15938;SDS011;8068;51.322;9.450;2022-11-15T05:04:00;3.90;;;3.70;;
15938;SDS011;8068;51.322;9.450;2022-11-15T05:06:45;3.60;;;3.40;;
15938;SDS011;8068;51.322;9.450;2022-11-15T05:09:12;4.90;;;4.17;;
15938;SDS011;8068;51.322;9.450;2022-11-15T05:11:39;4.37;;;3.97;;
15938;SDS011;8068;51.322;9.450;2022-11-15T05:14:05;4.13;;;3.93;;
15938;SDS011;8068;51.322;9.450;2022-11-15T05:16:32;3.90;;;3.60;;
15938;SDS011;8068;51.322;9.450;2022-11-15T05:18:58;7.73;;;3.30;;
15938;SDS011;8068;51.322;9.450;2022-11-15T05:21:24;4.10;;;3.80;;
15938;SDS011;8068;51.322;9.450;2022-11-15T05:23:50;4.73;;;4.10;;
15938;SDS011;8068;51.322;9.450;2022-11-15T05:26:16;6.90;;;5.73;;
15938;SDS011;8068;51.322;9.450;2022-11-15T05:28:43;4.70;;;4.40;;
15938;SDS011;8068;51.322;9.450;2022-11-15T05:31:10;5.73;;;3.73;;
15938;SDS011;8068;51.322;9.450;2022-11-15T05:33:38;4.20;;;3.90;;
15938;SDS011;8068;51.322;9.450;2022-11-15T05:36:50;6.47;;;5.50;;
15938;SDS011;8068;51.322;9.450;2022-11-15T05:38:51;5.50;;;5.00;;
15938;SDS011;8068;51.322;9.450;2022-11-15T05:41:18;4.13;;;3.80;;
15938;SDS011;8068;51.322;9.450;2022-11-15T05:43:46;7.00;;;4.13;;
15938;SDS011;8068;51.322;9.450;2022-11-15T05:46:14;4.60;;;4.20;;
15938;SDS011;8068;51.322;9.450;2022-11-15T05:48:41;4.40;;;3.97;;
15938;SDS011;8068;51.322;9.450;2022-11-15T05:51:09;26.17;;;16.03;;
15938;SDS011;8068;51.322;9.450;2022-11-15T05:53:35;9.60;;;8.20;;
15938;SDS011;8068;51.322;9.450;2022-11-15T05:56:02;5.07;;;4.17;;
15938;SDS011;8068;51.322;9.450;2022-11-15T05:58:31;4.40;;;4.00;;
15938;SDS011;8068;51.322;9.450;2022-11-15T06:00:57;4.30;;;4.10;;
15938;SDS011;8068;51.322;9.450;2022-11-15T06:03:24;4.03;;;3.73;;
15938;SDS011;8068;51.322;9.450;2022-11-15T06:05:50;8.13;;;3.93;;
15938;SDS011;8068;51.322;9.450;2022-11-15T06:08:16;6.53;;;4.33;;
15938;SDS011;8068;51.322;9.450;2022-11-15T06:10:42;3.97;;;3.67;;
15938;SDS011;8068;51.322;9.450;2022-11-15T06:13:08;4.20;;;3.83;;
15938;SDS011;8068;51.322;9.450;2022-11-15T06:15:34;9.27;;;4.20;;
15938;SDS011;8068;51.322;9.450;2022-11-15T06:18:00;5.43;;;3.77;;
15938;SDS011;8068;51.322;9.450;2022-11-15T06:20:28;4.93;;;3.87;;
15938;SDS011;8068;51.322;9.450;2022-11-15T06:22:58;4.50;;;4.20;;
15938;SDS011;8068;51.322;9.450;2022-11-15T06:25:25;4.50;;;4.07;;
15938;SDS011;8068;51.322;9.450;2022-11-15T06:27:52;3.63;;;3.43;;
15938;SDS011;8068;51.322;9.450;2022-11-15T06:30:22;4.20;;;3.90;;
15938;SDS011;8068;51.322;9.450;2022-11-15T06:32:49;4.30;;;3.90;;
15938;SDS011;8068;51.322;9.450;2022-11-15T06:35:15;5.93;;;3.97;;
15938;SDS011;8068;51.322;9.450;2022-11-15T06:37:41;5.77;;;3.87;;
15938;SDS011;8068;51.322;9.450;2022-11-15T06:40:08;4.20;;;4.00;;
15938;SDS011;8068;51.322;9.450;2022-11-15T06:42:35;3.50;;;3.30;;
15938;SDS011;8068;51.322;9.450;2022-11-15T06:45:02;4.60;;;4.20;;
15938;SDS011;8068;51.322;9.450;2022-11-15T06:47:28;3.37;;;3.17;;
15938;SDS011;8068;51.322;9.450;2022-11-15T06:49:54;5.40;;;3.90;;
15938;SDS011;8068;51.322;9.450;2022-11-15T06:52:20;4.37;;;3.97;;
15938;SDS011;8068;51.322;9.450;2022-11-15T06:54:47;6.30;;;3.43;;
15938;SDS011;8068;51.322;9.450;2022-11-15T06:57:13;5.30;;;4.90;;
15938;SDS011;8068;51.322;9.450;2022-11-15T06:59:39;5.50;;;4.90;;
15938;SDS011;8068;51.322;9.450;2022-11-15T07:02:10;4.40;;;4.07;;
15938;SDS011;8068;51.322;9.450;2022-11-15T07:04:39;4.60;;;4.20;;
15938;SDS011;8068;51.322;9.450;2022-11-15T07:07:06;4.40;;;4.00;;
15938;SDS011;8068;51.322;9.450;2022-11-15T07:09:32;3.70;;;3.50;;
15938;SDS011;8068;51.322;9.450;2022-11-15T07:11:58;4.87;;;3.97;;
15938;SDS011;8068;51.322;9.450;2022-11-15T07:14:31;4.77;;;4.30;;
15938;SDS011;8068;51.322;9.450;2022-11-15T07:16:57;4.23;;;3.83;;
15938;SDS011;8068;51.322;9.450;2022-11-15T07:19:23;7.23;;;4.30;;
15938;SDS011;8068;51.322;9.450;2022-11-15T07:21:49;4.80;;;4.33;;
15938;SDS011;8068;51.322;9.450;2022-11-15T07:24:15;4.43;;;4.23;;
15938;SDS011;8068;51.322;9.450;2022-11-15T07:26:41;3.57;;;3.23;;
15938;SDS011;8068;51.322;9.450;2022-11-15T07:29:08;4.40;;;4.00;;
15938;SDS011;8068;51.322;9.450;2022-11-15T07:31:34;4.10;;;3.53;;
15938;SDS011;8068;51.322;9.450;2022-11-15T07:34:00;5.23;;;4.23;;
15938;SDS011;8068;51.322;9.450;2022-11-15T07:36:26;4.30;;;4.10;;
15938;SDS011;8068;51.322;9.450;2022-11-15T07:38:52;7.40;;;3.60;;
15938;SDS011;8068;51.322;9.450;2022-11-15T07:41:18;10.73;;;4.17;;
15938;SDS011;8068;51.322;9.450;2022-11-15T07:43:44;4.43;;;4.23;;
15938;SDS011;8068;51.322;9.450;2022-11-15T07:46:10;6.87;;;3.83;;
15938;SDS011;8068;51.322;9.450;2022-11-15T07:48:37;3.90;;;3.70;;
15938;SDS011;8068;51.322;9.450;2022-11-15T07:51:11;9.63;;;6.83;;
15938;SDS011;8068;51.322;9.450;2022-11-15T07:53:40;5.03;;;4.50;;
15938;SDS011;8068;51.322;9.450;2022-11-15T07:56:06;5.40;;;4.90;;
15938;SDS011;8068;51.322;9.450;2022-11-15T07:58:33;4.27;;;3.70;;
15938;SDS011;8068;51.322;9.450;2022-11-15T08:01:02;4.57;;;4.17;;
15938;SDS011;8068;51.322;9.450;2022-11-15T08:03:29;4.33;;;3.90;;
15938;SDS011;8068;51.322;9.450;2022-11-15T08:05:56;7.50;;;4.00;;
15938;SDS011;8068;51.322;9.450;2022-11-15T08:08:22;4.90;;;4.50;;
15938;SDS011;8068;51.322;9.450;2022-11-15T08:10:48;4.00;;;3.63;;
15938;SDS011;8068;51.322;9.450;2022-11-15T08:13:14;5.83;;;4.30;;
15938;SDS011;8068;51.322;9.450;2022-11-15T08:15:41;5.00;;;4.60;;
15938;SDS011;8068;51.322;9.450;2022-11-15T08:18:11;4.60;;;4.30;;
15938;SDS011;8068;51.322;9.450;2022-11-15T08:20:39;4.80;;;4.40;;
15938;SDS011;8068;51.322;9.450;2022-11-15T08:23:09;5.07;;;4.67;;
15938;SDS011;8068;51.322;9.450;2022-11-15T08:25:36;6.10;;;4.10;;
15938;SDS011;8068;51.322;9.450;2022-11-15T08:28:04;3.77;;;3.57;;
15938;SDS011;8068;51.322;9.450;2022-11-15T08:30:34;4.83;;;4.53;;
15938;SDS011;8068;51.322;9.450;2022-11-15T08:33:02;4.80;;;4.40;;
15938;SDS011;8068;51.322;9.450;2022-11-15T08:35:28;5.10;;;4.70;;
15938;SDS011;8068;51.322;9.450;2022-11-15T08:37:55;9.20;;;5.80;;
15938;SDS011;8068;51.322;9.450;2022-11-15T08:40:21;5.33;;;4.83;;
15938;SDS011;8068;51.322;9.450;2022-11-15T08:42:47;6.07;;;4.00;;
15938;SDS011;8068;51.322;9.450;2022-11-15T08:45:14;4.50;;;4.10;;
15938;SDS011;8068;51.322;9.450;2022-11-15T08:47:40;4.77;;;4.47;;
15938;SDS011;8068;51.322;9.450;2022-11-15T08:50:06;5.93;;;3.43;;
15938;SDS011;8068;51.322;9.450;2022-11-15T08:52:33;6.77;;;4.17;;
15938;SDS011;8068;51.322;9.450;2022-11-15T08:54:59;4.27;;;3.90;;
15938;SDS011;8068;51.322;9.450;2022-11-15T08:57:27;4.40;;;4.03;;
15938;SDS011;8068;51.322;9.450;2022-11-15T08:59:54;5.00;;;4.10;;
15938;SDS011;8068;51.322;9.450;2022-11-15T09:02:21;4.50;;;4.03;;
15938;SDS011;8068;51.322;9.450;2022-11-15T09:04:47;4.20;;;3.90;;
15938;SDS011;8068;51.322;9.450;2022-11-15T09:07:13;6.53;;;3.10;;
15938;SDS011;8068;51.322;9.450;2022-11-15T09:09:40;3.20;;;3.00;;
15938;SDS011;8068;51.322;9.450;2022-11-15T09:12:06;5.23;;;3.60;;
15938;SDS011;8068;51.322;9.450;2022-11-15T09:14:33;4.03;;;3.40;;
15938;SDS011;8068;51.322;9.450;2022-11-15T09:16:59;5.00;;;3.50;;
15938;SDS011;8068;51.322;9.450;2022-11-15T09:19:25;3.57;;;3.43;;
15938;SDS011;8068;51.322;9.450;2022-11-15T09:21:51;3.57;;;3.27;;
15938;SDS011;8068;51.322;9.450;2022-11-15T09:24:18;4.57;;;3.30;;
15938;SDS011;8068;51.322;9.450;2022-11-15T09:26:45;3.87;;;3.60;;
15938;SDS011;8068;51.322;9.450;2022-11-15T09:29:11;8.90;;;5.47;;
15938;SDS011;8068;51.322;9.450;2022-11-15T09:31:37;4.00;;;3.70;;
15938;SDS011;8068;51.322;9.450;2022-11-15T09:34:03;4.17;;;3.20;;
15938;SDS011;8068;51.322;9.450;2022-11-15T09:36:29;4.20;;;3.30;;
15938;SDS011;8068;51.322;9.450;2022-11-15T09:38:57;4.00;;;3.80;;
15938;SDS011;8068;51.322;9.450;2022-11-15T09:41:26;3.80;;;3.50;;
15938;SDS011;8068;51.322;9.450;2022-11-15T09:44:08;5.10;;;3.73;;
15938;SDS011;8068;51.322;9.450;2022-11-15T09:49:42;9.77;;;3.83;;
15938;SDS011;8068;51.322;9.450;2022-11-15T09:52:18;4.50;;;3.50;;
15938;SDS011;8068;51.322;9.450;2022-11-15T09:54:46;7.03;;;3.50;;
15938;SDS011;8068;51.322;9.450;2022-11-15T09:57:21;3.83;;;3.63;;
15938;SDS011;8068;51.322;9.450;2022-11-15T10:04:56;5.30;;;4.00;;
15938;SDS011;8068;51.322;9.450;2022-11-15T10:12:53;11.60;;;3.67;;
15938;SDS011;8068;51.322;9.450;2022-11-15T10:15:19;4.30;;;3.97;;
15938;SDS011;8068;51.322;9.450;2022-11-15T10:20:34;3.50;;;3.30;;
15938;SDS011;8068;51.322;9.450;2022-11-15T10:23:17;3.53;;;3.40;;
15938;SDS011;8068;51.322;9.450;2022-11-15T10:25:45;4.27;;;3.97;;
15938;SDS011;8068;51.322;9.450;2022-11-15T10:28:13;4.00;;;3.70;;
15938;SDS011;8068;51.322;9.450;2022-11-15T10:30:46;3.13;;;2.93;;
15938;SDS011;8068;51.322;9.450;2022-11-15T10:33:16;3.70;;;3.43;;
15938;SDS011;8068;51.322;9.450;2022-11-15T10:35:46;4.30;;;4.00;;
15938;SDS011;8068;51.322;9.450;2022-11-15T10:38:12;6.90;;;4.00;;
15938;SDS011;8068;51.322;9.450;2022-11-15T10:40:39;3.97;;;3.77;;
15938;SDS011;8068;51.322;9.450;2022-11-15T10:45:35;4.13;;;3.83;;
15938;SDS011;8068;51.322;9.450;2022-11-15T10:50:38;7.57;;;3.60;;
15938;SDS011;8068;51.322;9.450;2022-11-15T10:53:11;3.90;;;3.50;;
15938;SDS011;8068;51.322;9.450;2022-11-15T10:55:41;3.90;;;3.60;;
15938;SDS011;8068;51.322;9.450;2022-11-15T11:00:52;3.70;;;3.50;;
15938;SDS011;8068;51.322;9.450;2022-11-15T11:03:35;4.17;;;3.40;;
15938;SDS011;8068;51.322;9.450;2022-11-15T11:06:09;3.13;;;2.93;;
15938;SDS011;8068;51.322;9.450;2022-11-15T11:08:37;3.70;;;3.33;;
15938;SDS011;8068;51.322;9.450;2022-11-15T11:11:03;3.50;;;3.10;;
15938;SDS011;8068;51.322;9.450;2022-11-15T11:13:31;3.77;;;2.80;;
15938;SDS011;8068;51.322;9.450;2022-11-15T11:18:26;3.40;;;3.20;;
15938;SDS011;8068;51.322;9.450;2022-11-15T11:20:58;3.03;;;2.83;;
15938;SDS011;8068;51.322;9.450;2022-11-15T11:26:46;3.30;;;2.60;;
15938;SDS011;8068;51.322;9.450;2022-11-15T11:29:31;4.03;;;2.83;;
15938;SDS011;8068;51.322;9.450;2022-11-15T11:35:01;2.97;;;2.67;;
15938;SDS011;8068;51.322;9.450;2022-11-15T11:49:15;2.73;;;2.53;;
15938;SDS011;8068;51.322;9.450;2022-11-15T11:52:08;4.33;;;2.93;;
15938;SDS011;8068;51.322;9.450;2022-11-15T12:00:27;2.30;;;2.20;;
15938;SDS011;8068;51.322;9.450;2022-11-15T12:14:00;2.20;;;2.00;;
15938;SDS011;8068;51.322;9.450;2022-11-15T12:16:30;5.20;;;2.23;;
15938;SDS011;8068;51.322;9.450;2022-11-15T12:19:02;2.90;;;1.77;;
15938;SDS011;8068;51.322;9.450;2022-11-15T12:21:34;3.37;;;1.80;;
15938;SDS011;8068;51.322;9.450;2022-11-15T12:24:08;2.13;;;2.03;;
15938;SDS011;8068;51.322;9.450;2022-11-15T12:26:45;3.57;;;2.03;;
15938;SDS011;8068;51.322;9.450;2022-11-15T12:29:20;2.17;;;1.73;;
15938;SDS011;8068;51.322;9.450;2022-11-15T12:31:52;1.90;;;1.80;;
15938;SDS011;8068;51.322;9.450;2022-11-15T12:36:49;1.80;;;1.70;;
15938;SDS011;8068;51.322;9.450;2022-11-15T12:39:16;1.93;;;1.80;;
15938;SDS011;8068;51.322;9.450;2022-11-15T12:52:03;1.73;;;1.63;;
15938;SDS011;8068;51.322;9.450;2022-11-15T13:02:37;1.87;;;1.77;;
15938;SDS011;8068;51.322;9.450;2022-11-15T13:08:01;2.43;;;1.47;;
15938;SDS011;8068;51.322;9.450;2022-11-15T13:10:30;3.10;;;1.90;;
15938;SDS011;8068;51.322;9.450;2022-11-15T13:15:34;5.20;;;3.80;;
15938;SDS011;8068;51.322;9.450;2022-11-15T13:21:18;2.20;;;2.00;;
15938;SDS011;8068;51.322;9.450;2022-11-15T13:24:12;3.00;;;2.80;;
15938;SDS011;8068;51.322;9.450;2022-11-15T13:26:39;2.30;;;2.20;;
15938;SDS011;8068;51.322;9.450;2022-11-15T13:29:14;1.77;;;1.67;;
15938;SDS011;8068;51.322;9.450;2022-11-15T13:31:42;4.70;;;1.97;;
15938;SDS011;8068;51.322;9.450;2022-11-15T13:34:30;2.50;;;2.30;;
15938;SDS011;8068;51.322;9.450;2022-11-15T13:39:53;2.57;;;2.37;;
15938;SDS011;8068;51.322;9.450;2022-11-15T13:42:20;3.30;;;2.57;;
15938;SDS011;8068;51.322;9.450;2022-11-15T13:44:56;3.10;;;2.60;;
15938;SDS011;8068;51.322;9.450;2022-11-15T13:47:25;2.30;;;2.10;;
15938;SDS011;8068;51.322;9.450;2022-11-15T13:49:58;2.37;;;2.13;;
15938;SDS011;8068;51.322;9.450;2022-11-15T13:52:27;3.60;;;2.40;;
15938;SDS011;8068;51.322;9.450;2022-11-15T13:54:58;2.23;;;2.13;;
15938;SDS011;8068;51.322;9.450;2022-11-15T13:57:48;2.63;;;2.10;;
15938;SDS011;8068;51.322;9.450;2022-11-15T14:00:59;2.57;;;2.37;;
15938;SDS011;8068;51.322;9.450;2022-11-15T14:03:15;2.53;;;2.43;;
15938;SDS011;8068;51.322;9.450;2022-11-15T14:06:03;3.20;;;2.23;;
15938;SDS011;8068;51.322;9.450;2022-11-15T14:08:39;2.23;;;2.07;;
15938;SDS011;8068;51.322;9.450;2022-11-15T14:11:15;2.30;;;2.10;;
15938;SDS011;8068;51.322;9.450;2022-11-15T14:14:11;2.40;;;2.20;;
15938;SDS011;8068;51.322;9.450;2022-11-15T14:16:39;2.37;;;2.17;;
15938;SDS011;8068;51.322;9.450;2022-11-15T14:19:10;2.60;;;2.00;;
15938;SDS011;8068;51.322;9.450;2022-11-15T14:22:07;2.77;;;2.57;;
15938;SDS011;8068;51.322;9.450;2022-11-15T14:24:35;2.60;;;2.50;;
15938;SDS011;8068;51.322;9.450;2022-11-15T14:29:47;3.63;;;2.63;;
15938;SDS011;8068;51.322;9.450;2022-11-15T14:32:15;4.83;;;2.30;;
15938;SDS011;8068;51.322;9.450;2022-11-15T14:34:43;2.67;;;2.47;;
15938;SDS011;8068;51.322;9.450;2022-11-15T14:37:18;2.50;;;2.30;;
15938;SDS011;8068;51.322;9.450;2022-11-15T14:39:46;3.70;;;2.53;;
15938;SDS011;8068;51.322;9.450;2022-11-15T14:42:12;4.13;;;2.40;;
15938;SDS011;8068;51.322;9.450;2022-11-15T14:44:38;3.30;;;2.30;;
15938;SDS011;8068;51.322;9.450;2022-11-15T14:47:11;3.50;;;3.00;;
15938;SDS011;8068;51.322;9.450;2022-11-15T14:49:37;3.20;;;2.67;;
15938;SDS011;8068;51.322;9.450;2022-11-15T14:52:07;3.40;;;3.10;;
15938;SDS011;8068;51.322;9.450;2022-11-15T14:54:36;3.80;;;3.03;;
15938;SDS011;8068;51.322;9.450;2022-11-15T14:57:02;2.97;;;2.77;;
15938;SDS011;8068;51.322;9.450;2022-11-15T14:59:28;6.70;;;3.50;;
15938;SDS011;8068;51.322;9.450;2022-11-15T15:01:54;3.30;;;2.60;;
15938;SDS011;8068;51.322;9.450;2022-11-15T15:04:21;2.90;;;2.70;;
15938;SDS011;8068;51.322;9.450;2022-11-15T15:06:47;3.07;;;2.87;;
15938;SDS011;8068;51.322;9.450;2022-11-15T15:09:13;3.50;;;2.70;;
15938;SDS011;8068;51.322;9.450;2022-11-15T15:11:39;10.43;;;3.17;;
15938;SDS011;8068;51.322;9.450;2022-11-15T15:14:05;2.97;;;2.77;;
15938;SDS011;8068;51.322;9.450;2022-11-15T15:16:31;8.97;;;3.37;;
15938;SDS011;8068;51.322;9.450;2022-11-15T15:18:57;4.13;;;2.97;;
15938;SDS011;8068;51.322;9.450;2022-11-15T15:21:24;10.63;;;3.50;;
15938;SDS011;8068;51.322;9.450;2022-11-15T15:24:02;8.00;;;3.73;;
15938;SDS011;8068;51.322;9.450;2022-11-15T15:26:28;8.97;;;4.50;;
15938;SDS011;8068;51.322;9.450;2022-11-15T15:28:54;10.87;;;5.40;;
15938;SDS011;8068;51.322;9.450;2022-11-15T15:31:20;8.43;;;4.03;;
15938;SDS011;8068;51.322;9.450;2022-11-15T15:33:46;8.03;;;4.10;;
15938;SDS011;8068;51.322;9.450;2022-11-15T15:36:13;4.80;;;4.40;;
15938;SDS011;8068;51.322;9.450;2022-11-15T15:38:40;9.00;;;4.57;;
15938;SDS011;8068;51.322;9.450;2022-11-15T15:41:10;9.90;;;3.90;;
15938;SDS011;8068;51.322;9.450;2022-11-15T15:43:40;4.40;;;3.20;;
15938;SDS011;8068;51.322;9.450;2022-11-15T15:46:10;8.53;;;3.70;;
15938;SDS011;8068;51.322;9.450;2022-11-15T15:48:37;7.60;;;4.33;;
15938;SDS011;8068;51.322;9.450;2022-11-15T15:51:05;6.60;;;4.37;;
15938;SDS011;8068;51.322;9.450;2022-11-15T15:53:41;7.00;;;3.90;;
15938;SDS011;8068;51.322;9.450;2022-11-15T15:56:07;4.60;;;4.27;;
15938;SDS011;8068;51.322;9.450;2022-11-15T15:58:34;10.97;;;4.10;;
15938;SDS011;8068;51.322;9.450;2022-11-15T16:01:00;9.50;;;4.23;;
15938;SDS011;8068;51.322;9.450;2022-11-15T16:03:27;11.90;;;4.67;;
15938;SDS011;8068;51.322;9.450;2022-11-15T16:05:53;9.03;;;5.13;;
15938;SDS011;8068;51.322;9.450;2022-11-15T16:08:21;4.67;;;4.30;;
15938;SDS011;8068;51.322;9.450;2022-11-15T16:10:48;4.93;;;4.47;;
15938;SDS011;8068;51.322;9.450;2022-11-15T16:13:14;6.60;;;4.57;;
15938;SDS011;8068;51.322;9.450;2022-11-15T16:15:40;5.00;;;4.50;;
15938;SDS011;8068;51.322;9.450;2022-11-15T16:18:08;5.60;;;4.60;;
15938;SDS011;8068;51.322;9.450;2022-11-15T16:20:42;7.10;;;4.63;;
15938;SDS011;8068;51.322;9.450;2022-11-15T16:23:10;4.90;;;4.07;;
15938;SDS011;8068;51.322;9.450;2022-11-15T16:25:44;6.30;;;4.87;;
15938;SDS011;8068;51.322;9.450;2022-11-15T16:28:30;6.20;;;4.73;;
15938;SDS011;8068;51.322;9.450;2022-11-15T16:31:02;6.40;;;4.80;;
15938;SDS011;8068;51.322;9.450;2022-11-15T16:33:30;11.63;;;4.77;;
15938;SDS011;8068;51.322;9.450;2022-11-15T16:35:57;4.03;;;3.83;;
15938;SDS011;8068;51.322;9.450;2022-11-15T16:38:23;4.17;;;3.97;;
15938;SDS011;8068;51.322;9.450;2022-11-15T16:40:49;4.10;;;3.87;;
15938;SDS011;8068;51.322;9.450;2022-11-15T16:43:15;8.93;;;3.40;;
15938;SDS011;8068;51.322;9.450;2022-11-15T16:45:41;4.30;;;3.73;;
15938;SDS011;8068;51.322;9.450;2022-11-15T16:48:15;3.53;;;3.23;;
15938;SDS011;8068;51.322;9.450;2022-11-15T16:50:46;3.03;;;2.90;;
15938;SDS011;8068;51.322;9.450;2022-11-15T16:53:12;4.27;;;3.37;;
15938;SDS011;8068;51.322;9.450;2022-11-15T16:55:38;4.57;;;3.30;;
15938;SDS011;8068;51.322;9.450;2022-11-15T16:58:04;3.03;;;2.83;;
15938;SDS011;8068;51.322;9.450;2022-11-15T17:00:31;3.63;;;3.43;;
15938;SDS011;8068;51.322;9.450;2022-11-15T17:02:57;4.50;;;4.20;;
15938;SDS011;8068;51.322;9.450;2022-11-15T17:05:23;5.13;;;4.63;;
15938;SDS011;8068;51.322;9.450;2022-11-15T17:07:52;4.80;;;4.50;;
15938;SDS011;8068;51.322;9.450;2022-11-15T17:10:19;6.00;;;4.47;;
15938;SDS011;8068;51.322;9.450;2022-11-15T17:12:46;4.83;;;4.43;;
15938;SDS011;8068;51.322;9.450;2022-11-15T17:15:13;5.20;;;4.80;;